sensor_id;sensor_type;location;lat;lon;timestamp;P1;durP1;ratioP1;P2;durP2;ratioP2
21183;SDS011;18176;49.502;11.754;2023-04-06T00:03:26;13.13;;;6.20;;
21183;SDS011;18176;49.502;11.754;2023-04-06T00:07:27;9.40;;;5.70;;
21183;SDS011;18176;49.502;11.754;2023-04-06T00:11:29;11.57;;;5.63;;
21183;SDS011;18176;49.502;11.754;2023-04-06T00:15:33;10.37;;;5.60;;
21183;SDS011;18176;49.502;11.754;2023-04-06T00:19:33;11.87;;;6.07;;
21183;SDS011;18176;49.502;11.754;2023-04-06T00:23:36;10.80;;;5.70;;
21183;SDS011;18176;49.502;11.754;2023-04-06T00:27:37;10.97;;;6.00;;
21183;SDS011;18176;49.502;11.754;2023-04-06T00:31:41;11.17;;;6.20;;
21183;SDS011;18176;49.502;11.754;2023-04-06T00:35:41;11.67;;;5.90;;
21183;SDS011;18176;49.502;11.754;2023-04-06T00:39:42;16.10;;;7.10;;
21183;SDS011;18176;49.502;11.754;2023-04-06T00:43:42;11.20;;;5.33;;
21183;SDS011;18176;49.502;11.754;2023-04-06T00:47:45;7.97;;;4.90;;
21183;SDS011;18176;49.502;11.754;2023-04-06T00:51:46;7.83;;;5.20;;
21183;SDS011;18176;49.502;11.754;2023-04-06T00:55:47;10.13;;;5.33;;
21183;SDS011;18176;49.502;11.754;2023-04-06T00:59:48;9.80;;;5.10;;
21183;SDS011;18176;49.502;11.754;2023-04-06T01:03:52;15.20;;;6.33;;
21183;SDS011;18176;49.502;11.754;2023-04-06T01:07:52;11.60;;;6.63;;
21183;SDS011;18176;49.502;11.754;2023-04-06T01:11:56;10.10;;;5.70;;
21183;SDS011;18176;49.502;11.754;2023-04-06T01:16:00;8.40;;;5.53;;
21183;SDS011;18176;49.502;11.754;2023-04-06T01:20:21;9.17;;;5.10;;
21183;SDS011;18176;49.502;11.754;2023-04-06T01:24:25;7.33;;;4.60;;
21183;SDS011;18176;49.502;11.754;2023-04-06T01:28:34;8.73;;;4.90;;
21183;SDS011;18176;49.502;11.754;2023-04-06T01:32:46;8.13;;;4.90;;
21183;SDS011;18176;49.502;11.754;2023-04-06T01:36:57;8.13;;;4.90;;
21183;SDS011;18176;49.502;11.754;2023-04-06T01:41:02;9.00;;;5.17;;
21183;SDS011;18176;49.502;11.754;2023-04-06T01:45:14;7.10;;;4.57;;
21183;SDS011;18176;49.502;11.754;2023-04-06T01:49:15;7.97;;;4.73;;
21183;SDS011;18176;49.502;11.754;2023-04-06T01:53:21;7.33;;;4.70;;
21183;SDS011;18176;49.502;11.754;2023-04-06T01:57:31;8.43;;;4.53;;
21183;SDS011;18176;49.502;11.754;2023-04-06T02:01:45;8.93;;;5.27;;
21183;SDS011;18176;49.502;11.754;2023-04-06T02:05:47;7.73;;;4.87;;
21183;SDS011;18176;49.502;11.754;2023-04-06T02:10:00;10.30;;;5.27;;
21183;SDS011;18176;49.502;11.754;2023-04-06T02:14:08;7.40;;;5.17;;
21183;SDS011;18176;49.502;11.754;2023-04-06T02:18:15;8.53;;;4.80;;
21183;SDS011;18176;49.502;11.754;2023-04-06T02:22:16;7.97;;;5.00;;
21183;SDS011;18176;49.502;11.754;2023-04-06T02:26:17;7.10;;;5.27;;
21183;SDS011;18176;49.502;11.754;2023-04-06T02:30:20;8.30;;;5.30;;
21183;SDS011;18176;49.502;11.754;2023-04-06T02:34:21;9.00;;;5.20;;
21183;SDS011;18176;49.502;11.754;2023-04-06T02:38:23;7.30;;;5.20;;
21183;SDS011;18176;49.502;11.754;2023-04-06T02:42:23;9.13;;;5.67;;
21183;SDS011;18176;49.502;11.754;2023-04-06T02:46:27;9.67;;;5.13;;
21183;SDS011;18176;49.502;11.754;2023-04-06T02:50:28;9.37;;;5.77;;
21183;SDS011;18176;49.502;11.754;2023-04-06T02:54:32;8.30;;;5.60;;
21183;SDS011;18176;49.502;11.754;2023-04-06T02:58:33;11.93;;;6.30;;
21183;SDS011;18176;49.502;11.754;2023-04-06T03:02:37;15.93;;;7.03;;
21183;SDS011;18176;49.502;11.754;2023-04-06T03:06:41;10.07;;;6.10;;
21183;SDS011;18176;49.502;11.754;2023-04-06T03:10:51;11.97;;;6.40;;
21183;SDS011;18176;49.502;11.754;2023-04-06T03:15:00;12.53;;;6.70;;
21183;SDS011;18176;49.502;11.754;2023-04-06T03:19:04;12.33;;;6.70;;
21183;SDS011;18176;49.502;11.754;2023-04-06T03:23:05;13.07;;;6.60;;
21183;SDS011;18176;49.502;11.754;2023-04-06T03:27:09;14.67;;;7.90;;
21183;SDS011;18176;49.502;11.754;2023-04-06T03:31:10;15.07;;;8.67;;
21183;SDS011;18176;49.502;11.754;2023-04-06T03:35:32;21.77;;;9.87;;
21183;SDS011;18176;49.502;11.754;2023-04-06T03:39:34;15.03;;;8.40;;
21183;SDS011;18176;49.502;11.754;2023-04-06T03:43:35;17.90;;;8.67;;
21183;SDS011;18176;49.502;11.754;2023-04-06T03:47:35;15.63;;;8.13;;
21183;SDS011;18176;49.502;11.754;2023-04-06T03:51:40;13.70;;;8.20;;
21183;SDS011;18176;49.502;11.754;2023-04-06T03:55:41;14.00;;;7.93;;
21183;SDS011;18176;49.502;11.754;2023-04-06T03:59:42;14.13;;;7.50;;
21183;SDS011;18176;49.502;11.754;2023-04-06T04:03:42;13.90;;;7.60;;
21183;SDS011;18176;49.502;11.754;2023-04-06T04:07:49;10.93;;;7.00;;
21183;SDS011;18176;49.502;11.754;2023-04-06T04:11:53;10.10;;;6.47;;
21183;SDS011;18176;49.502;11.754;2023-04-06T04:15:54;12.87;;;6.90;;
21183;SDS011;18176;49.502;11.754;2023-04-06T04:19:55;14.43;;;6.87;;
21183;SDS011;18176;49.502;11.754;2023-04-06T04:23:58;10.13;;;6.73;;
21183;SDS011;18176;49.502;11.754;2023-04-06T04:28:01;10.30;;;6.03;;
21183;SDS011;18176;49.502;11.754;2023-04-06T04:32:03;10.83;;;6.80;;
21183;SDS011;18176;49.502;11.754;2023-04-06T04:36:04;11.27;;;6.50;;
21183;SDS011;18176;49.502;11.754;2023-04-06T04:40:13;11.57;;;6.50;;
21183;SDS011;18176;49.502;11.754;2023-04-06T04:44:26;10.50;;;6.67;;
21183;SDS011;18176;49.502;11.754;2023-04-06T04:48:27;11.27;;;6.97;;
21183;SDS011;18176;49.502;11.754;2023-04-06T04:52:33;13.30;;;7.40;;
21183;SDS011;18176;49.502;11.754;2023-04-06T04:56:46;11.70;;;7.43;;
21183;SDS011;18176;49.502;11.754;2023-04-06T05:01:03;15.37;;;8.53;;
21183;SDS011;18176;49.502;11.754;2023-04-06T05:05:04;12.27;;;7.50;;
21183;SDS011;18176;49.502;11.754;2023-04-06T05:09:07;16.93;;;8.83;;
21183;SDS011;18176;49.502;11.754;2023-04-06T05:13:13;20.73;;;10.80;;
21183;SDS011;18176;49.502;11.754;2023-04-06T05:17:16;21.60;;;10.63;;
21183;SDS011;18176;49.502;11.754;2023-04-06T05:21:17;18.47;;;10.70;;
21183;SDS011;18176;49.502;11.754;2023-04-06T05:25:25;31.03;;;11.20;;
21183;SDS011;18176;49.502;11.754;2023-04-06T05:29:34;24.47;;;10.43;;
21183;SDS011;18176;49.502;11.754;2023-04-06T05:33:35;16.83;;;9.60;;
21183;SDS011;18176;49.502;11.754;2023-04-06T05:37:41;15.03;;;9.00;;
21183;SDS011;18176;49.502;11.754;2023-04-06T05:41:43;14.27;;;8.27;;
21183;SDS011;18176;49.502;11.754;2023-04-06T05:45:48;13.40;;;8.20;;
21183;SDS011;18176;49.502;11.754;2023-04-06T05:49:49;15.00;;;8.00;;
21183;SDS011;18176;49.502;11.754;2023-04-06T05:54:00;15.10;;;9.00;;
21183;SDS011;18176;49.502;11.754;2023-04-06T05:58:03;13.90;;;8.33;;
21183;SDS011;18176;49.502;11.754;2023-04-06T06:02:07;14.83;;;7.83;;
21183;SDS011;18176;49.502;11.754;2023-04-06T06:06:12;15.67;;;8.47;;
21183;SDS011;18176;49.502;11.754;2023-04-06T06:10:34;14.73;;;8.50;;
21183;SDS011;18176;49.502;11.754;2023-04-06T06:14:36;15.13;;;8.77;;
21183;SDS011;18176;49.502;11.754;2023-04-06T06:18:40;15.43;;;9.00;;
21183;SDS011;18176;49.502;11.754;2023-04-06T06:22:40;16.80;;;8.83;;
21183;SDS011;18176;49.502;11.754;2023-04-06T06:26:46;18.03;;;9.57;;
21183;SDS011;18176;49.502;11.754;2023-04-06T06:30:52;15.00;;;8.90;;
21183;SDS011;18176;49.502;11.754;2023-04-06T06:34:56;18.63;;;8.53;;
21183;SDS011;18176;49.502;11.754;2023-04-06T06:38:57;14.50;;;8.57;;
21183;SDS011;18176;49.502;11.754;2023-04-06T06:43:01;13.97;;;7.90;;
21183;SDS011;18176;49.502;11.754;2023-04-06T06:47:18;16.53;;;8.20;;
21183;SDS011;18176;49.502;11.754;2023-04-06T06:51:21;12.63;;;7.87;;
21183;SDS011;18176;49.502;11.754;2023-04-06T06:55:21;14.40;;;8.37;;
21183;SDS011;18176;49.502;11.754;2023-04-06T06:59:23;16.00;;;8.37;;
21183;SDS011;18176;49.502;11.754;2023-04-06T07:03:24;14.60;;;8.43;;
21183;SDS011;18176;49.502;11.754;2023-04-06T07:07:27;18.13;;;10.40;;
21183;SDS011;18176;49.502;11.754;2023-04-06T07:11:28;16.90;;;7.50;;
21183;SDS011;18176;49.502;11.754;2023-04-06T07:15:29;10.17;;;6.93;;
21183;SDS011;18176;49.502;11.754;2023-04-06T07:19:30;11.43;;;7.60;;
21183;SDS011;18176;49.502;11.754;2023-04-06T07:23:34;12.20;;;6.87;;
21183;SDS011;18176;49.502;11.754;2023-04-06T07:27:35;12.03;;;6.30;;
21183;SDS011;18176;49.502;11.754;2023-04-06T07:31:36;9.10;;;6.00;;
21183;SDS011;18176;49.502;11.754;2023-04-06T07:35:37;8.77;;;5.47;;
21183;SDS011;18176;49.502;11.754;2023-04-06T07:39:42;8.87;;;5.57;;
21183;SDS011;18176;49.502;11.754;2023-04-06T07:43:43;9.80;;;5.73;;
21183;SDS011;18176;49.502;11.754;2023-04-06T07:47:45;9.80;;;5.80;;
21183;SDS011;18176;49.502;11.754;2023-04-06T07:51:46;9.37;;;5.33;;
21183;SDS011;18176;49.502;11.754;2023-04-06T07:55:50;11.33;;;5.67;;
21183;SDS011;18176;49.502;11.754;2023-04-06T07:59:50;7.93;;;5.23;;
21183;SDS011;18176;49.502;11.754;2023-04-06T08:03:51;8.90;;;5.00;;
21183;SDS011;18176;49.502;11.754;2023-04-06T08:07:52;7.27;;;4.73;;
21183;SDS011;18176;49.502;11.754;2023-04-06T08:11:55;8.77;;;5.03;;
21183;SDS011;18176;49.502;11.754;2023-04-06T08:15:59;8.13;;;5.27;;
21183;SDS011;18176;49.502;11.754;2023-04-06T08:20:02;7.80;;;5.10;;
21183;SDS011;18176;49.502;11.754;2023-04-06T08:24:04;9.13;;;5.10;;
21183;SDS011;18176;49.502;11.754;2023-04-06T08:28:08;9.47;;;5.07;;
21183;SDS011;18176;49.502;11.754;2023-04-06T08:32:10;8.33;;;4.53;;
21183;SDS011;18176;49.502;11.754;2023-04-06T08:36:12;8.23;;;5.30;;
21183;SDS011;18176;49.502;11.754;2023-04-06T08:40:19;9.27;;;5.00;;
21183;SDS011;18176;49.502;11.754;2023-04-06T08:44:23;9.00;;;5.22;;
21183;SDS011;18176;49.502;11.754;2023-04-06T08:48:26;8.93;;;5.28;;
21183;SDS011;18176;49.502;11.754;2023-04-06T08:52:30;6.45;;;4.68;;
21183;SDS011;18176;49.502;11.754;2023-04-06T08:56:37;6.93;;;4.90;;
21183;SDS011;18176;49.502;11.754;2023-04-06T09:00:43;9.10;;;5.47;;
21183;SDS011;18176;49.502;11.754;2023-04-06T09:04:44;6.72;;;5.15;;
21183;SDS011;18176;49.502;11.754;2023-04-06T09:08:48;8.90;;;5.75;;
21183;SDS011;18176;49.502;11.754;2023-04-06T09:12:48;13.55;;;5.70;;
21183;SDS011;18176;49.502;11.754;2023-04-06T09:16:52;7.53;;;4.75;;
21183;SDS011;18176;49.502;11.754;2023-04-06T09:20:57;7.50;;;5.43;;
21183;SDS011;18176;49.502;11.754;2023-04-06T09:25:08;8.15;;;5.30;;
21183;SDS011;18176;49.502;11.754;2023-04-06T09:29:23;8.40;;;5.20;;
21183;SDS011;18176;49.502;11.754;2023-04-06T09:33:28;6.55;;;4.78;;
21183;SDS011;18176;49.502;11.754;2023-04-06T09:37:28;6.60;;;5.22;;
21183;SDS011;18176;49.502;11.754;2023-04-06T09:41:29;7.95;;;5.75;;
21183;SDS011;18176;49.502;11.754;2023-04-06T09:45:34;7.82;;;5.43;;
21183;SDS011;18176;49.502;11.754;2023-04-06T09:49:39;8.32;;;5.30;;
21183;SDS011;18176;49.502;11.754;2023-04-06T09:53:43;8.85;;;5.70;;
21183;SDS011;18176;49.502;11.754;2023-04-06T09:57:58;8.93;;;5.20;;
21183;SDS011;18176;49.502;11.754;2023-04-06T10:02:04;7.95;;;5.25;;
21183;SDS011;18176;49.502;11.754;2023-04-06T10:06:18;6.90;;;5.22;;
21183;SDS011;18176;49.502;11.754;2023-04-06T10:10:23;6.18;;;5.32;;
21183;SDS011;18176;49.502;11.754;2023-04-06T10:14:26;8.85;;;5.10;;
21183;SDS011;18176;49.502;11.754;2023-04-06T10:18:27;7.13;;;4.97;;
21183;SDS011;18176;49.502;11.754;2023-04-06T10:22:39;7.28;;;5.63;;
21183;SDS011;18176;49.502;11.754;2023-04-06T10:27:00;6.75;;;5.35;;
21183;SDS011;18176;49.502;11.754;2023-04-06T10:31:07;6.50;;;4.35;;
21183;SDS011;18176;49.502;11.754;2023-04-06T10:35:10;6.53;;;4.93;;
21183;SDS011;18176;49.502;11.754;2023-04-06T10:39:23;5.95;;;4.72;;
21183;SDS011;18176;49.502;11.754;2023-04-06T10:43:27;8.48;;;5.30;;
21183;SDS011;18176;49.502;11.754;2023-04-06T10:47:38;7.93;;;5.40;;
21183;SDS011;18176;49.502;11.754;2023-04-06T10:51:40;7.57;;;5.32;;
21183;SDS011;18176;49.502;11.754;2023-04-06T10:55:46;7.85;;;5.38;;
21183;SDS011;18176;49.502;11.754;2023-04-06T10:59:52;8.27;;;5.68;;
21183;SDS011;18176;49.502;11.754;2023-04-06T11:03:54;7.45;;;5.63;;
21183;SDS011;18176;49.502;11.754;2023-04-06T11:07:59;6.28;;;5.50;;
21183;SDS011;18176;49.502;11.754;2023-04-06T11:12:06;7.25;;;5.70;;
21183;SDS011;18176;49.502;11.754;2023-04-06T11:16:11;5.85;;;5.25;;
21183;SDS011;18176;49.502;11.754;2023-04-06T11:20:14;7.13;;;6.07;;
21183;SDS011;18176;49.502;11.754;2023-04-06T11:24:17;5.97;;;5.38;;
21183;SDS011;18176;49.502;11.754;2023-04-06T11:28:24;8.48;;;5.72;;
21183;SDS011;18176;49.502;11.754;2023-04-06T11:32:25;9.30;;;5.78;;
21183;SDS011;18176;49.502;11.754;2023-04-06T11:36:27;6.00;;;5.40;;
21183;SDS011;18176;49.502;11.754;2023-04-06T11:40:28;6.47;;;5.65;;
21183;SDS011;18176;49.502;11.754;2023-04-06T11:44:34;6.20;;;5.53;;
21183;SDS011;18176;49.502;11.754;2023-04-06T11:48:43;8.40;;;6.00;;
21183;SDS011;18176;49.502;11.754;2023-04-06T11:52:44;7.38;;;6.30;;
21183;SDS011;18176;49.502;11.754;2023-04-06T11:56:59;9.40;;;6.40;;
21183;SDS011;18176;49.502;11.754;2023-04-06T12:01:05;6.85;;;6.15;;
21183;SDS011;18176;49.502;11.754;2023-04-06T12:05:09;7.82;;;5.80;;
21183;SDS011;18176;49.502;11.754;2023-04-06T12:09:10;7.68;;;5.45;;
21183;SDS011;18176;49.502;11.754;2023-04-06T12:13:10;7.97;;;4.65;;
21183;SDS011;18176;49.502;11.754;2023-04-06T12:17:14;7.80;;;5.32;;
21183;SDS011;18176;49.502;11.754;2023-04-06T12:21:15;6.65;;;5.40;;
21183;SDS011;18176;49.502;11.754;2023-04-06T12:25:15;7.97;;;5.47;;
21183;SDS011;18176;49.502;11.754;2023-04-06T12:29:19;6.93;;;4.57;;
21183;SDS011;18176;49.502;11.754;2023-04-06T12:33:26;8.20;;;5.03;;
21183;SDS011;18176;49.502;11.754;2023-04-06T12:37:27;7.70;;;4.65;;
21183;SDS011;18176;49.502;11.754;2023-04-06T12:41:28;5.85;;;4.78;;
21183;SDS011;18176;49.502;11.754;2023-04-06T12:45:31;8.40;;;6.22;;
21183;SDS011;18176;49.502;11.754;2023-04-06T12:49:36;6.60;;;5.93;;
21183;SDS011;18176;49.502;11.754;2023-04-06T12:53:40;8.23;;;6.72;;
21183;SDS011;18176;49.502;11.754;2023-04-06T12:57:42;8.63;;;7.38;;
21183;SDS011;18176;49.502;11.754;2023-04-06T13:01:47;7.68;;;6.78;;
21183;SDS011;18176;49.502;11.754;2023-04-06T13:05:51;8.10;;;6.53;;
21183;SDS011;18176;49.502;11.754;2023-04-06T13:09:52;7.25;;;6.55;;
21183;SDS011;18176;49.502;11.754;2023-04-06T13:13:54;5.95;;;5.35;;
21183;SDS011;18176;49.502;11.754;2023-04-06T13:17:56;7.40;;;6.70;;
21183;SDS011;18176;49.502;11.754;2023-04-06T13:22:00;8.45;;;7.03;;
21183;SDS011;18176;49.502;11.754;2023-04-06T13:26:01;9.10;;;6.57;;
21183;SDS011;18176;49.502;11.754;2023-04-06T13:30:07;7.78;;;6.00;;
21183;SDS011;18176;49.502;11.754;2023-04-06T13:34:13;5.60;;;5.00;;
21183;SDS011;18176;49.502;11.754;2023-04-06T13:38:16;6.75;;;5.68;;
21183;SDS011;18176;49.502;11.754;2023-04-06T13:42:17;9.15;;;5.70;;
21183;SDS011;18176;49.502;11.754;2023-04-06T13:46:18;7.68;;;6.03;;
21183;SDS011;18176;49.502;11.754;2023-04-06T13:50:20;6.07;;;5.47;;
21183;SDS011;18176;49.502;11.754;2023-04-06T13:54:25;6.63;;;5.95;;
21183;SDS011;18176;49.502;11.754;2023-04-06T13:58:30;6.75;;;5.35;;
21183;SDS011;18176;49.502;11.754;2023-04-06T14:02:33;6.45;;;5.72;;
21183;SDS011;18176;49.502;11.754;2023-04-06T14:06:33;7.05;;;5.72;;
21183;SDS011;18176;49.502;11.754;2023-04-06T14:10:39;5.80;;;5.00;;
21183;SDS011;18176;49.502;11.754;2023-04-06T14:14:41;5.72;;;4.85;;
21183;SDS011;18176;49.502;11.754;2023-04-06T14:18:44;5.82;;;4.75;;
21183;SDS011;18176;49.502;11.754;2023-04-06T14:22:47;6.60;;;4.90;;
21183;SDS011;18176;49.502;11.754;2023-04-06T14:26:52;6.75;;;5.00;;
21183;SDS011;18176;49.502;11.754;2023-04-06T14:30:53;7.18;;;4.47;;
21183;SDS011;18176;49.502;11.754;2023-04-06T14:34:56;8.23;;;4.85;;
21183;SDS011;18176;49.502;11.754;2023-04-06T14:38:59;6.53;;;4.55;;
21183;SDS011;18176;49.502;11.754;2023-04-06T14:43:02;6.22;;;5.47;;
21183;SDS011;18176;49.502;11.754;2023-04-06T14:47:03;5.15;;;4.65;;
21183;SDS011;18176;49.502;11.754;2023-04-06T14:51:04;6.30;;;5.25;;
21183;SDS011;18176;49.502;11.754;2023-04-06T14:55:05;6.68;;;5.60;;
21183;SDS011;18176;49.502;11.754;2023-04-06T14:59:09;7.53;;;5.18;;
21183;SDS011;18176;49.502;11.754;2023-04-06T15:03:10;7.38;;;5.00;;
21183;SDS011;18176;49.502;11.754;2023-04-06T15:07:17;7.40;;;4.90;;
21183;SDS011;18176;49.502;11.754;2023-04-06T15:11:18;5.88;;;4.90;;
21183;SDS011;18176;49.502;11.754;2023-04-06T15:15:21;6.13;;;5.10;;
21183;SDS011;18176;49.502;11.754;2023-04-06T15:19:23;6.30;;;4.40;;
21183;SDS011;18176;49.502;11.754;2023-04-06T15:23:25;4.78;;;3.97;;
21183;SDS011;18176;49.502;11.754;2023-04-06T15:27:26;7.70;;;4.18;;
21183;SDS011;18176;49.502;11.754;2023-04-06T15:31:31;6.35;;;3.88;;
21183;SDS011;18176;49.502;11.754;2023-04-06T15:35:34;5.60;;;4.13;;
21183;SDS011;18176;49.502;11.754;2023-04-06T15:39:39;6.18;;;4.38;;
21183;SDS011;18176;49.502;11.754;2023-04-06T15:43:41;5.00;;;3.92;;
21183;SDS011;18176;49.502;11.754;2023-04-06T15:47:49;6.75;;;4.68;;
21183;SDS011;18176;49.502;11.754;2023-04-06T15:51:50;5.63;;;4.35;;
21183;SDS011;18176;49.502;11.754;2023-04-06T15:55:50;6.72;;;4.50;;
21183;SDS011;18176;49.502;11.754;2023-04-06T15:59:57;4.88;;;4.00;;
21183;SDS011;18176;49.502;11.754;2023-04-06T16:04:08;5.43;;;4.32;;
21183;SDS011;18176;49.502;11.754;2023-04-06T16:08:10;6.80;;;4.60;;
21183;SDS011;18176;49.502;11.754;2023-04-06T16:12:11;6.60;;;4.35;;
21183;SDS011;18176;49.502;11.754;2023-04-06T16:16:12;6.15;;;4.63;;
21183;SDS011;18176;49.502;11.754;2023-04-06T16:20:19;5.43;;;4.13;;
21183;SDS011;18176;49.502;11.754;2023-04-06T16:24:20;5.72;;;4.72;;
21183;SDS011;18176;49.502;11.754;2023-04-06T16:28:21;6.63;;;4.93;;
21183;SDS011;18176;49.502;11.754;2023-04-06T16:32:22;5.78;;;4.38;;
21183;SDS011;18176;49.502;11.754;2023-04-06T16:36:28;4.85;;;4.07;;
21183;SDS011;18176;49.502;11.754;2023-04-06T16:40:30;5.88;;;4.78;;
21183;SDS011;18176;49.502;11.754;2023-04-06T16:44:30;8.05;;;5.45;;
21183;SDS011;18176;49.502;11.754;2023-04-06T16:53:02;8.30;;;5.22;;
21183;SDS011;18176;49.502;11.754;2023-04-06T16:57:03;10.05;;;4.97;;
21183;SDS011;18176;49.502;11.754;2023-04-06T17:01:04;6.88;;;5.00;;
21183;SDS011;18176;49.502;11.754;2023-04-06T17:05:05;8.00;;;4.80;;
21183;SDS011;18176;49.502;11.754;2023-04-06T17:09:08;5.87;;;4.67;;
21183;SDS011;18176;49.502;11.754;2023-04-06T17:13:08;7.90;;;4.63;;
21183;SDS011;18176;49.502;11.754;2023-04-06T17:17:09;7.32;;;4.97;;
21183;SDS011;18176;49.502;11.754;2023-04-06T17:21:09;5.97;;;4.80;;
21183;SDS011;18176;49.502;11.754;2023-04-06T17:25:12;9.37;;;5.17;;
21183;SDS011;18176;49.502;11.754;2023-04-06T17:29:13;7.97;;;5.30;;
21183;SDS011;18176;49.502;11.754;2023-04-06T17:33:13;6.93;;;5.03;;
21183;SDS011;18176;49.502;11.754;2023-04-06T17:37:14;9.90;;;6.80;;
21183;SDS011;18176;49.502;11.754;2023-04-06T17:41:17;13.73;;;6.17;;
21183;SDS011;18176;49.502;11.754;2023-04-06T17:45:18;10.60;;;6.20;;
21183;SDS011;18176;49.502;11.754;2023-04-06T17:49:18;8.97;;;5.73;;
21183;SDS011;18176;49.502;11.754;2023-04-06T17:53:19;9.00;;;5.00;;
21183;SDS011;18176;49.502;11.754;2023-04-06T17:57:22;10.27;;;6.33;;
21183;SDS011;18176;49.502;11.754;2023-04-06T18:01:22;15.63;;;10.40;;
21183;SDS011;18176;49.502;11.754;2023-04-06T18:05:23;14.97;;;9.30;;
21183;SDS011;18176;49.502;11.754;2023-04-06T18:09:24;20.77;;;13.13;;
21183;SDS011;18176;49.502;11.754;2023-04-06T18:13:27;16.73;;;11.13;;
21183;SDS011;18176;49.502;11.754;2023-04-06T18:17:27;12.27;;;6.87;;
21183;SDS011;18176;49.502;11.754;2023-04-06T18:21:28;8.73;;;5.90;;
21183;SDS011;18176;49.502;11.754;2023-04-06T18:25:30;11.13;;;6.57;;
21183;SDS011;18176;49.502;11.754;2023-04-06T18:29:32;9.57;;;5.47;;
21183;SDS011;18176;49.502;11.754;2023-04-06T18:33:33;10.47;;;6.07;;
21183;SDS011;18176;49.502;11.754;2023-04-06T18:37:33;21.37;;;10.47;;
21183;SDS011;18176;49.502;11.754;2023-04-06T18:41:34;16.40;;;9.87;;
21183;SDS011;18176;49.502;11.754;2023-04-06T18:45:37;20.57;;;9.53;;
21183;SDS011;18176;49.502;11.754;2023-04-06T18:49:39;17.37;;;10.80;;
21183;SDS011;18176;49.502;11.754;2023-04-06T18:53:39;13.70;;;8.20;;
21183;SDS011;18176;49.502;11.754;2023-04-06T18:57:39;14.13;;;8.20;;
21183;SDS011;18176;49.502;11.754;2023-04-06T19:01:42;17.10;;;10.30;;
21183;SDS011;18176;49.502;11.754;2023-04-06T19:05:47;13.20;;;7.87;;
21183;SDS011;18176;49.502;11.754;2023-04-06T19:09:48;14.40;;;8.33;;
21183;SDS011;18176;49.502;11.754;2023-04-06T19:13:49;11.37;;;7.57;;
21183;SDS011;18176;49.502;11.754;2023-04-06T19:17:52;10.63;;;6.67;;
21183;SDS011;18176;49.502;11.754;2023-04-06T19:21:53;10.33;;;6.30;;
21183;SDS011;18176;49.502;11.754;2023-04-06T19:25:56;11.87;;;6.97;;
21183;SDS011;18176;49.502;11.754;2023-04-06T19:29:56;11.30;;;6.83;;
21183;SDS011;18176;49.502;11.754;2023-04-06T19:33:59;13.33;;;8.10;;
21183;SDS011;18176;49.502;11.754;2023-04-06T19:38:00;12.60;;;7.20;;
21183;SDS011;18176;49.502;11.754;2023-04-06T19:42:00;15.40;;;9.07;;
21183;SDS011;18176;49.502;11.754;2023-04-06T19:46:01;13.20;;;7.70;;
21183;SDS011;18176;49.502;11.754;2023-04-06T19:50:07;12.80;;;7.77;;
21183;SDS011;18176;49.502;11.754;2023-04-06T19:54:08;14.97;;;8.70;;
21183;SDS011;18176;49.502;11.754;2023-04-06T19:58:08;14.73;;;8.57;;
21183;SDS011;18176;49.502;11.754;2023-04-06T20:02:09;14.87;;;8.90;;
21183;SDS011;18176;49.502;11.754;2023-04-06T20:06:13;15.20;;;8.00;;
21183;SDS011;18176;49.502;11.754;2023-04-06T20:10:14;11.97;;;7.33;;
21183;SDS011;18176;49.502;11.754;2023-04-06T20:14:16;12.73;;;7.90;;
21183;SDS011;18176;49.502;11.754;2023-04-06T20:18:18;27.97;;;16.70;;
21183;SDS011;18176;49.502;11.754;2023-04-06T20:22:21;27.23;;;14.37;;
21183;SDS011;18176;49.502;11.754;2023-04-06T20:26:21;19.83;;;11.97;;
21183;SDS011;18176;49.502;11.754;2023-04-06T20:30:22;18.47;;;10.83;;
21183;SDS011;18176;49.502;11.754;2023-04-06T20:34:23;18.77;;;10.33;;
21183;SDS011;18176;49.502;11.754;2023-04-06T20:38:37;21.97;;;12.57;;
21183;SDS011;18176;49.502;11.754;2023-04-06T20:42:38;34.57;;;16.80;;
21183;SDS011;18176;49.502;11.754;2023-04-06T20:46:38;20.77;;;11.63;;
21183;SDS011;18176;49.502;11.754;2023-04-06T20:50:41;15.43;;;9.60;;
21183;SDS011;18176;49.502;11.754;2023-04-06T20:54:44;17.93;;;11.17;;
21183;SDS011;18176;49.502;11.754;2023-04-06T20:58:46;19.33;;;11.97;;
21183;SDS011;18176;49.502;11.754;2023-04-06T21:02:47;25.03;;;13.73;;
21183;SDS011;18176;49.502;11.754;2023-04-06T21:06:48;25.97;;;14.27;;
21183;SDS011;18176;49.502;11.754;2023-04-06T21:10:51;20.40;;;12.13;;
21183;SDS011;18176;49.502;11.754;2023-04-06T21:14:51;16.87;;;11.30;;
21183;SDS011;18176;49.502;11.754;2023-04-06T21:18:54;9.90;;;7.10;;
21183;SDS011;18176;49.502;11.754;2023-04-06T21:22:55;10.90;;;6.13;;
21183;SDS011;18176;49.502;11.754;2023-04-06T21:26:58;10.57;;;6.20;;
21183;SDS011;18176;49.502;11.754;2023-04-06T21:30:58;14.50;;;7.90;;
21183;SDS011;18176;49.502;11.754;2023-04-06T21:34:59;13.87;;;8.90;;
21183;SDS011;18176;49.502;11.754;2023-04-06T21:39:00;21.03;;;10.63;;
21183;SDS011;18176;49.502;11.754;2023-04-06T21:43:04;14.23;;;8.97;;
21183;SDS011;18176;49.502;11.754;2023-04-06T21:47:04;16.60;;;9.03;;
21183;SDS011;18176;49.502;11.754;2023-04-06T21:51:05;14.50;;;8.20;;
21183;SDS011;18176;49.502;11.754;2023-04-06T21:55:06;14.80;;;9.30;;
21183;SDS011;18176;49.502;11.754;2023-04-06T21:59:10;15.03;;;8.17;;
21183;SDS011;18176;49.502;11.754;2023-04-06T22:03:11;11.03;;;7.50;;
21183;SDS011;18176;49.502;11.754;2023-04-06T22:07:12;16.83;;;9.70;;
21183;SDS011;18176;49.502;11.754;2023-04-06T22:11:13;16.40;;;8.57;;
21183;SDS011;18176;49.502;11.754;2023-04-06T22:15:16;14.33;;;8.30;;
21183;SDS011;18176;49.502;11.754;2023-04-06T22:19:17;12.70;;;7.63;;
21183;SDS011;18176;49.502;11.754;2023-04-06T22:23:17;13.07;;;7.03;;
21183;SDS011;18176;49.502;11.754;2023-04-06T22:27:18;16.23;;;8.80;;
21183;SDS011;18176;49.502;11.754;2023-04-06T22:31:21;13.97;;;8.27;;
21183;SDS011;18176;49.502;11.754;2023-04-06T22:35:21;10.77;;;7.30;;
21183;SDS011;18176;49.502;11.754;2023-04-06T22:39:22;18.50;;;9.43;;
21183;SDS011;18176;49.502;11.754;2023-04-06T22:43:22;14.00;;;9.00;;
21183;SDS011;18176;49.502;11.754;2023-04-06T22:47:25;16.53;;;9.37;;
21183;SDS011;18176;49.502;11.754;2023-04-06T22:51:25;17.80;;;9.77;;
21183;SDS011;18176;49.502;11.754;2023-04-06T22:55:26;15.03;;;8.40;;
21183;SDS011;18176;49.502;11.754;2023-04-06T22:59:27;12.50;;;7.77;;
21183;SDS011;18176;49.502;11.754;2023-04-06T23:03:30;13.63;;;7.53;;
21183;SDS011;18176;49.502;11.754;2023-04-06T23:07:30;12.27;;;7.30;;
21183;SDS011;18176;49.502;11.754;2023-04-06T23:11:31;10.80;;;6.70;;
21183;SDS011;18176;49.502;11.754;2023-04-06T23:15:31;10.57;;;6.90;;
21183;SDS011;18176;49.502;11.754;2023-04-06T23:19:34;12.17;;;7.07;;
21183;SDS011;18176;49.502;11.754;2023-04-06T23:23:34;8.83;;;6.10;;
21183;SDS011;18176;49.502;11.754;2023-04-06T23:27:35;12.30;;;6.77;;
21183;SDS011;18176;49.502;11.754;2023-04-06T23:31:35;12.57;;;7.20;;
21183;SDS011;18176;49.502;11.754;2023-04-06T23:35:38;20.10;;;8.63;;
21183;SDS011;18176;49.502;11.754;2023-04-06T23:39:38;18.27;;;8.10;;
21183;SDS011;18176;49.502;11.754;2023-04-06T23:43:40;15.93;;;7.77;;
21183;SDS011;18176;49.502;11.754;2023-04-06T23:47:40;15.10;;;8.00;;
21183;SDS011;18176;49.502;11.754;2023-04-06T23:51:44;16.10;;;7.83;;
21183;SDS011;18176;49.502;11.754;2023-04-06T23:55:44;14.17;;;7.47;;